Time;durP1;ratioP1;P1;durP2;ratioP2;P2;SDS_P1;SDS_P2;PMS_P1;PMS_P2;Temp;Humidity;BMP_temperature;BMP_pressure;BME280_temperature;BME280_humidity;BME280_pressure;Samples;Min_cycle;Max_cycle;Signal;HPM_P1;HPM_P2
2024/01/13 00:01:39;;;;;;;12.20;3.63;;;4.40;99.90;;;;;;4956157;28;20251;-62
2024/01/13 00:04:04;;;;;;;11.65;3.08;;;4.40;99.90;;;;;;4962207;28;20035;-62
2024/01/13 00:06:30;;;;;;;14.65;3.70;;;4.40;99.90;;;;;;4963863;28;20065;-62
2024/01/13 00:08:56;;;;;;;13.13;3.80;;;4.40;99.90;;;;;;4969453;28;20086;-62
2024/01/13 00:11:21;;;;;;;17.45;3.85;;;4.40;99.90;;;;;;4967024;28;20046;-62
2024/01/13 00:13:47;;;;;;;14.60;3.97;;;4.30;99.90;;;;;;4952858;28;20046;-62
2024/01/13 00:16:13;;;;;;;16.48;4.35;;;4.30;99.90;;;;;;5049516;28;20176;-62
2024/01/13 00:18:39;;;;;;;17.08;4.30;;;4.40;99.90;;;;;;4957842;28;20634;-62
2024/01/13 00:21:04;;;;;;;15.00;4.47;;;4.30;99.90;;;;;;4988701;28;20049;-62
2024/01/13 00:23:30;;;;;;;15.05;4.13;;;4.40;99.90;;;;;;4978827;28;20409;-61
2024/01/13 00:25:56;;;;;;;10.10;3.80;;;4.30;99.90;;;;;;4955542;28;20053;-62
2024/01/13 00:28:21;;;;;;;15.50;4.32;;;4.30;99.90;;;;;;4951499;28;20549;-62
2024/01/13 00:30:47;;;;;;;11.63;4.22;;;4.30;99.90;;;;;;4955522;28;20219;-62
2024/01/13 00:33:13;;;;;;;10.02;3.45;;;4.30;99.90;;;;;;4986347;28;20419;-62
2024/01/13 00:35:39;;;;;;;18.45;4.60;;;4.30;99.90;;;;;;4964967;28;20394;-62
2024/01/13 00:38:04;;;;;;;15.35;4.25;;;4.20;99.90;;;;;;4958873;28;20352;-62
2024/01/13 00:40:30;;;;;;;12.50;3.92;;;4.20;99.90;;;;;;4983887;28;20135;-61
2024/01/13 00:42:56;;;;;;;14.38;3.83;;;4.20;99.90;;;;;;4954843;28;20995;-62
2024/01/13 00:45:21;;;;;;;14.15;4.43;;;4.30;99.90;;;;;;4977452;28;20042;-62
2024/01/13 00:47:47;;;;;;;11.93;4.00;;;4.20;99.90;;;;;;4972678;28;20444;-62
2024/01/13 00:50:13;;;;;;;15.02;5.60;;;4.20;99.90;;;;;;4964684;28;20112;-62
2024/01/13 00:52:38;;;;;;;14.25;4.10;;;4.20;99.90;;;;;;4965407;28;20544;-61
2024/01/13 00:55:05;;;;;;;17.20;4.53;;;4.20;99.90;;;;;;4970528;28;20035;-62
2024/01/13 00:57:30;;;;;;;22.42;4.45;;;4.20;99.90;;;;;;4987864;28;20074;-62
2024/01/13 00:59:56;;;;;;;13.80;4.05;;;4.20;99.90;;;;;;4952668;28;20038;-62
2024/01/13 01:02:22;;;;;;;10.48;4.50;;;4.20;99.90;;;;;;4980942;28;20042;-62
2024/01/13 01:04:47;;;;;;;15.80;4.25;;;4.20;99.90;;;;;;4979443;28;20519;-61
2024/01/13 01:07:13;;;;;;;10.88;4.10;;;4.20;99.90;;;;;;4956129;28;20190;-62
2024/01/13 01:09:39;;;;;;;13.90;4.25;;;4.30;99.90;;;;;;4986144;28;20934;-62
2024/01/13 01:12:05;;;;;;;13.02;3.53;;;4.30;99.90;;;;;;4973201;28;20038;-62
2024/01/13 01:14:30;;;;;;;10.95;4.35;;;4.30;99.90;;;;;;4964678;28;20047;-62
2024/01/13 01:16:56;;;;;;;20.83;5.82;;;4.30;99.90;;;;;;4965240;28;20050;-62
2024/01/13 01:19:23;;;;;;;14.52;4.07;;;4.30;99.90;;;;;;4968028;28;20134;-62
2024/01/13 01:21:49;;;;;;;8.38;3.67;;;4.20;99.90;;;;;;4963903;28;20043;-62
2024/01/13 01:24:14;;;;;;;16.02;4.80;;;4.20;99.90;;;;;;4951207;28;20046;-62
2024/01/13 01:26:40;;;;;;;14.13;4.00;;;4.30;99.90;;;;;;4971005;28;20133;-62
2024/01/13 01:29:06;;;;;;;16.88;4.55;;;4.30;99.90;;;;;;4984225;28;20042;-62
2024/01/13 01:31:32;;;;;;;10.45;3.40;;;4.30;99.90;;;;;;4997010;28;20481;-62
2024/01/13 01:33:58;;;;;;;11.23;3.78;;;4.20;99.90;;;;;;4987335;28;20054;-62
2024/01/13 01:36:23;;;;;;;15.55;3.72;;;4.30;99.90;;;;;;4985656;28;20467;-62
2024/01/13 01:38:49;;;;;;;19.00;4.25;;;4.30;99.90;;;;;;4974456;28;20035;-62
2024/01/13 01:41:15;;;;;;;9.50;3.65;;;4.30;99.90;;;;;;4964877;28;20053;-62
2024/01/13 01:43:41;;;;;;;10.98;3.97;;;4.30;99.90;;;;;;4966339;28;20034;-62
2024/01/13 01:46:08;;;;;;;12.55;3.28;;;4.30;99.90;;;;;;4984633;28;20129;-62
2024/01/13 01:48:36;;;;;;;10.68;2.70;;;4.30;99.90;;;;;;4949583;28;20418;-62
2024/01/13 01:51:03;;;;;;;14.95;3.08;;;4.20;99.90;;;;;;4989292;28;20379;-61
2024/01/13 01:53:29;;;;;;;11.25;3.20;;;4.30;99.90;;;;;;4965302;28;20050;-61
2024/01/13 01:55:55;;;;;;;13.35;3.08;;;4.30;99.90;;;;;;4968600;28;20046;-62
2024/01/13 01:58:21;;;;;;;8.60;3.05;;;4.30;99.90;;;;;;4977604;28;21485;-62
2024/01/13 02:00:48;;;;;;;14.95;3.05;;;4.20;99.90;;;;;;4985370;28;20086;-61
2024/01/13 02:03:14;;;;;;;9.07;2.88;;;4.30;99.90;;;;;;4954616;28;20410;-62
2024/01/13 02:05:40;;;;;;;10.20;2.63;;;4.20;99.90;;;;;;4980681;28;20053;-61
2024/01/13 02:08:06;;;;;;;15.25;3.08;;;4.30;99.90;;;;;;4994692;28;20050;-62
2024/01/13 02:10:33;;;;;;;6.82;2.60;;;4.20;99.90;;;;;;4966988;28;20445;-61
2024/01/13 02:12:59;;;;;;;7.75;2.40;;;4.30;99.90;;;;;;4976072;28;20050;-62
2024/01/13 02:15:25;;;;;;;8.02;2.42;;;4.30;99.90;;;;;;4985388;28;20076;-62
2024/01/13 02:17:50;;;;;;;7.88;2.40;;;4.20;99.90;;;;;;5047848;28;20034;-62
2024/01/13 02:20:16;;;;;;;10.85;2.92;;;4.20;99.90;;;;;;4968691;28;20508;-62
2024/01/13 02:22:42;;;;;;;8.45;2.80;;;4.20;99.90;;;;;;4966927;28;20049;-61
2024/01/13 02:25:08;;;;;;;7.88;2.80;;;4.20;99.90;;;;;;4962292;28;20122;-62
2024/01/13 02:27:34;;;;;;;8.93;2.45;;;4.20;99.90;;;;;;4999904;28;20034;-62
2024/01/13 02:30:00;;;;;;;13.18;2.95;;;4.20;99.90;;;;;;4970272;28;20401;-62
2024/01/13 02:32:25;;;;;;;13.27;3.40;;;4.20;99.90;;;;;;4968680;28;20038;-61
2024/01/13 02:34:51;;;;;;;12.88;3.47;;;4.20;99.90;;;;;;4967129;28;20521;-61
2024/01/13 02:37:17;;;;;;;11.55;3.35;;;4.20;99.90;;;;;;4977076;28;20671;-62
2024/01/13 02:39:45;;;;;;;11.50;3.70;;;4.20;99.90;;;;;;4985232;28;20425;-62
2024/01/13 02:42:10;;;;;;;11.40;3.72;;;4.30;99.90;;;;;;4967528;28;20053;-62
2024/01/13 02:44:36;;;;;;;13.70;4.07;;;4.30;99.90;;;;;;4985908;28;20038;-62
2024/01/13 02:47:02;;;;;;;13.07;3.53;;;4.30;99.90;;;;;;4964508;28;20545;-62
2024/01/13 02:49:30;;;;;;;9.20;3.80;;;4.20;99.90;;;;;;4965425;28;20050;-62
2024/01/13 02:51:56;;;;;;;11.27;3.83;;;4.20;99.90;;;;;;4976728;28;20045;-62
2024/01/13 02:54:21;;;;;;;11.55;4.00;;;4.20;99.90;;;;;;4969831;28;20042;-62
2024/01/13 02:56:47;;;;;;;12.45;4.30;;;4.20;99.90;;;;;;4951952;28;20046;-61
2024/01/13 02:59:13;;;;;;;9.18;3.72;;;4.20;99.90;;;;;;4965640;28;20049;-62
2024/01/13 03:01:39;;;;;;;17.52;3.80;;;4.20;99.90;;;;;;4998133;28;20162;-62
2024/01/13 03:04:06;;;;;;;9.40;4.00;;;4.20;99.90;;;;;;4969534;28;20042;-62
2024/01/13 03:06:32;;;;;;;11.95;3.70;;;4.10;99.90;;;;;;4968271;28;20046;-62
2024/01/13 03:08:58;;;;;;;13.13;4.03;;;4.20;99.90;;;;;;4980117;28;20057;-62
2024/01/13 03:11:24;;;;;;;13.52;4.25;;;4.20;99.90;;;;;;4962505;28;20109;-62
2024/01/13 03:13:50;;;;;;;16.58;4.32;;;4.20;99.90;;;;;;4972332;28;20083;-62
2024/01/13 03:16:15;;;;;;;14.00;4.68;;;4.20;99.90;;;;;;5007069;28;20528;-62
2024/01/13 03:18:41;;;;;;;16.65;5.35;;;4.20;99.90;;;;;;4954513;28;20180;-62
2024/01/13 03:21:08;;;;;;;13.25;4.13;;;4.20;99.90;;;;;;4967440;28;20034;-62
2024/01/13 03:23:33;;;;;;;13.60;4.60;;;4.10;99.90;;;;;;4979733;28;20552;-62
2024/01/13 03:25:59;;;;;;;11.65;3.92;;;4.10;99.90;;;;;;4989962;28;20160;-62
2024/01/13 03:28:25;;;;;;;12.45;4.07;;;4.10;99.90;;;;;;4983031;28;20109;-62
2024/01/13 03:30:51;;;;;;;13.50;4.18;;;4.10;99.90;;;;;;4948179;28;20076;-62
2024/01/13 03:33:17;;;;;;;15.73;4.55;;;4.20;99.90;;;;;;4966525;28;20100;-62
2024/01/13 03:35:43;;;;;;;15.70;5.15;;;4.20;99.90;;;;;;4983287;28;20146;-62
2024/01/13 03:38:08;;;;;;;12.25;4.50;;;4.20;99.90;;;;;;4965263;28;20515;-62
2024/01/13 03:40:34;;;;;;;14.00;4.53;;;4.20;99.90;;;;;;4965233;28;20050;-62
2024/01/13 03:43:00;;;;;;;11.32;4.53;;;4.20;99.90;;;;;;4967127;28;20046;-62
2024/01/13 03:45:25;;;;;;;13.52;4.40;;;4.20;99.90;;;;;;4970442;28;20049;-62
2024/01/13 03:47:51;;;;;;;14.07;4.20;;;4.20;99.90;;;;;;4963397;28;20078;-62
2024/01/13 03:50:17;;;;;;;15.95;4.97;;;4.30;99.90;;;;;;4977127;28;20354;-62
2024/01/13 03:52:43;;;;;;;10.88;4.57;;;4.20;99.90;;;;;;4962333;28;20042;-62
2024/01/13 03:55:09;;;;;;;16.83;4.38;;;4.20;99.90;;;;;;4981438;28;20273;-62
2024/01/13 03:57:34;;;;;;;13.77;4.07;;;4.30;99.90;;;;;;4963517;28;20508;-62
2024/01/13 04:00:00;;;;;;;10.13;3.72;;;4.30;99.90;;;;;;4967365;28;20121;-61
2024/01/13 04:02:27;;;;;;;15.48;4.15;;;4.30;99.90;;;;;;4979403;28;20050;-62
2024/01/13 04:04:53;;;;;;;21.98;4.40;;;4.30;99.90;;;;;;4966133;28;20054;-62
2024/01/13 04:07:19;;;;;;;13.73;3.97;;;4.30;99.90;;;;;;4981649;28;20133;-62
2024/01/13 04:09:45;;;;;;;15.60;4.32;;;4.30;99.90;;;;;;4968671;28;20085;-62
2024/01/13 04:12:10;;;;;;;8.70;3.60;;;4.30;99.90;;;;;;4987522;28;20042;-62
2024/01/13 04:14:36;;;;;;;12.13;3.42;;;4.30;99.90;;;;;;4987579;28;20035;-62
2024/01/13 04:17:02;;;;;;;12.25;3.92;;;4.30;99.90;;;;;;4966729;28;20058;-62
2024/01/13 04:19:28;;;;;;;7.70;3.35;;;4.40;99.90;;;;;;4962598;28;20095;-61
2024/01/13 04:21:53;;;;;;;10.23;3.28;;;4.30;99.90;;;;;;4964262;28;20052;-62
2024/01/13 04:24:19;;;;;;;13.13;3.63;;;4.40;99.90;;;;;;4965352;28;20027;-62
2024/01/13 04:26:45;;;;;;;9.65;3.40;;;4.40;99.90;;;;;;4962017;28;20054;-62
2024/01/13 04:29:10;;;;;;;14.68;3.60;;;4.40;99.90;;;;;;4966243;28;20520;-62
2024/01/13 04:31:36;;;;;;;9.65;3.17;;;4.40;99.90;;;;;;4978864;28;20037;-62
2024/01/13 04:34:02;;;;;;;12.15;3.20;;;4.40;99.90;;;;;;4971029;28;20493;-62
2024/01/13 04:36:28;;;;;;;8.82;3.40;;;4.40;99.90;;;;;;4966388;28;20090;-62
2024/01/13 04:38:55;;;;;;;11.43;3.00;;;4.40;99.90;;;;;;4970920;28;20342;-62
2024/01/13 04:41:20;;;;;;;10.70;3.70;;;4.30;99.90;;;;;;4950422;28;20506;-62
2024/01/13 04:43:46;;;;;;;8.30;2.83;;;4.30;99.90;;;;;;4966943;28;20321;-62
2024/01/13 04:46:12;;;;;;;13.07;2.97;;;4.30;99.90;;;;;;4964206;28;20528;-63
2024/01/13 04:48:39;;;;;;;8.00;3.13;;;4.30;99.90;;;;;;4964896;28;20062;-62
2024/01/13 04:51:05;;;;;;;8.07;2.58;;;4.30;99.90;;;;;;4969558;28;20511;-62
2024/01/13 04:53:31;;;;;;;11.60;2.60;;;4.20;99.90;;;;;;4969615;28;20047;-62
2024/01/13 04:55:57;;;;;;;10.02;2.75;;;4.10;99.90;;;;;;4967864;28;20046;-62
2024/01/13 04:58:23;;;;;;;7.13;2.70;;;4.20;99.90;;;;;;4966400;28;20088;-62
2024/01/13 05:00:49;;;;;;;10.30;2.53;;;4.20;99.90;;;;;;4973544;28;20092;-62
2024/01/13 05:03:14;;;;;;;8.77;3.03;;;4.20;99.90;;;;;;4977027;28;20577;-62
2024/01/13 05:05:40;;;;;;;9.73;3.10;;;4.20;99.90;;;;;;4979991;28;20062;-62
2024/01/13 05:08:06;;;;;;;7.65;2.22;;;4.30;99.90;;;;;;4969864;28;20141;-62
2024/01/13 05:10:31;;;;;;;8.73;2.80;;;4.30;99.90;;;;;;4969354;28;20688;-62
2024/01/13 05:12:57;;;;;;;5.78;2.13;;;4.30;99.90;;;;;;4970332;28;20083;-61
2024/01/13 05:15:23;;;;;;;6.22;2.47;;;4.30;99.90;;;;;;4967937;28;20043;-61
2024/01/13 05:17:49;;;;;;;7.45;2.15;;;4.30;99.90;;;;;;4973636;28;20865;-62
2024/01/13 05:20:15;;;;;;;6.75;1.90;;;4.30;99.90;;;;;;4958846;28;20042;-62
2024/01/13 05:22:41;;;;;;;6.35;1.90;;;4.30;99.90;;;;;;5049901;28;20187;-62
2024/01/13 05:25:08;;;;;;;7.50;1.80;;;4.30;99.90;;;;;;4970489;28;20137;-62
2024/01/13 05:27:33;;;;;;;4.85;1.77;;;4.30;99.90;;;;;;4966288;28;20047;-62
2024/01/13 05:29:59;;;;;;;7.65;2.10;;;4.30;99.90;;;;;;4987122;28;20042;-62
2024/01/13 05:32:25;;;;;;;6.10;2.00;;;4.40;99.90;;;;;;4981395;28;20252;-62
2024/01/13 05:34:51;;;;;;;6.90;2.00;;;4.30;99.90;;;;;;4986379;28;20038;-62
2024/01/13 05:37:16;;;;;;;6.63;1.90;;;4.40;99.90;;;;;;4971226;28;20173;-62
2024/01/13 05:39:42;;;;;;;7.40;1.70;;;4.40;99.90;;;;;;4985013;28;20113;-63
2024/01/13 05:42:08;;;;;;;6.70;1.88;;;4.40;99.90;;;;;;4972311;28;20046;-62
2024/01/13 05:44:34;;;;;;;4.53;1.15;;;4.30;99.90;;;;;;4968355;28;20518;-62
2024/01/13 05:47:00;;;;;;;5.93;1.92;;;4.30;99.90;;;;;;4975272;28;20057;-62
2024/01/13 05:49:26;;;;;;;5.40;1.63;;;4.30;99.90;;;;;;4989163;28;20548;-62
2024/01/13 05:51:52;;;;;;;5.68;1.58;;;4.30;99.90;;;;;;4984671;28;20037;-62
2024/01/13 05:54:17;;;;;;;4.97;1.63;;;4.30;99.90;;;;;;4974738;28;20043;-62
2024/01/13 05:56:43;;;;;;;4.22;1.30;;;4.30;99.90;;;;;;4973957;28;20050;-62
2024/01/13 05:59:09;;;;;;;4.68;1.20;;;4.30;99.90;;;;;;4982516;28;20101;-62
2024/01/13 06:01:35;;;;;;;3.78;1.02;;;4.30;99.90;;;;;;4974128;28;20073;-62
2024/01/13 06:04:00;;;;;;;4.55;1.08;;;4.30;99.90;;;;;;4974996;28;20049;-62
2024/01/13 06:06:26;;;;;;;5.18;1.38;;;4.30;99.90;;;;;;4962944;28;20104;-62
2024/01/13 06:08:52;;;;;;;3.55;1.10;;;4.30;99.90;;;;;;4987442;28;20408;-62
2024/01/13 06:11:17;;;;;;;7.53;1.50;;;4.40;99.90;;;;;;4979090;28;20042;-62
2024/01/13 06:13:43;;;;;;;7.30;1.27;;;4.40;99.90;;;;;;4971125;28;20052;-62
2024/01/13 06:16:10;;;;;;;9.45;1.50;;;4.40;99.90;;;;;;4970102;28;20547;-62
2024/01/13 06:18:35;;;;;;;7.70;1.90;;;4.40;99.90;;;;;;4969071;28;20528;-62
2024/01/13 06:21:01;;;;;;;4.28;1.40;;;4.30;99.90;;;;;;4971539;28;20066;-62
2024/01/13 06:23:30;;;;;;;7.55;1.48;;;4.40;99.90;;;;;;4968498;28;20549;-62
2024/01/13 06:25:56;;;;;;;8.40;1.83;;;4.40;99.90;;;;;;4934720;28;20476;-62
2024/01/13 06:28:22;;;;;;;14.00;1.95;;;4.40;99.90;;;;;;4950332;28;20047;-62
2024/01/13 06:30:48;;;;;;;6.45;1.80;;;4.30;99.90;;;;;;4986860;28;20122;-62
2024/01/13 06:33:14;;;;;;;5.97;1.38;;;4.30;99.90;;;;;;4970592;28;20050;-62
2024/01/13 06:35:40;;;;;;;6.97;1.58;;;4.40;99.90;;;;;;4967958;28;20049;-62
2024/01/13 06:38:06;;;;;;;7.82;1.80;;;4.30;99.90;;;;;;4972699;28;20042;-62
2024/01/13 06:40:31;;;;;;;5.18;1.83;;;4.40;99.90;;;;;;4950552;28;20437;-62
2024/01/13 06:42:57;;;;;;;5.85;1.67;;;4.40;99.90;;;;;;4973873;28;20100;-62
2024/01/13 06:45:23;;;;;;;12.32;2.80;;;4.40;99.90;;;;;;4960655;28;20540;-62
2024/01/13 06:47:48;;;;;;;7.97;1.83;;;4.40;99.90;;;;;;4950572;28;20057;-62
2024/01/13 06:50:14;;;;;;;6.65;1.85;;;4.40;99.90;;;;;;4948417;28;20409;-62
2024/01/13 06:52:40;;;;;;;7.75;1.77;;;4.40;99.90;;;;;;4969880;28;20358;-62
2024/01/13 06:55:07;;;;;;;7.80;2.30;;;4.40;99.90;;;;;;4954409;28;20042;-62
2024/01/13 06:57:33;;;;;;;13.75;2.42;;;4.40;99.90;;;;;;4966588;28;20473;-62
2024/01/13 06:59:59;;;;;;;9.15;2.08;;;4.40;99.90;;;;;;4966124;28;20072;-62
2024/01/13 07:02:25;;;;;;;8.20;1.95;;;4.40;99.90;;;;;;4968243;28;20119;-62
2024/01/13 07:04:50;;;;;;;13.10;2.50;;;4.50;99.90;;;;;;4964966;28;20492;-62
2024/01/13 07:07:16;;;;;;;7.53;2.47;;;4.50;99.90;;;;;;4972235;28;20103;-62
2024/01/13 07:09:42;;;;;;;11.38;4.13;;;4.50;99.90;;;;;;4970914;28;20050;-62
2024/01/13 07:12:09;;;;;;;10.55;3.15;;;4.50;99.90;;;;;;4969101;28;20034;-62
2024/01/13 07:14:34;;;;;;;14.55;4.00;;;4.50;99.90;;;;;;4990658;28;20056;-64
2024/01/13 07:17:00;;;;;;;10.95;4.20;;;4.50;99.90;;;;;;4970382;28;20129;-62
2024/01/13 07:19:26;;;;;;;15.50;4.15;;;4.50;99.90;;;;;;4968052;28;20401;-62
2024/01/13 07:21:51;;;;;;;17.67;6.10;;;4.50;99.90;;;;;;4976209;28;20031;-62
2024/01/13 07:24:17;;;;;;;16.25;5.70;;;4.50;99.90;;;;;;4970985;28;20449;-62
2024/01/13 07:26:44;;;;;;;15.60;6.57;;;4.50;99.90;;;;;;4963775;28;20052;-62
2024/01/13 07:29:09;;;;;;;21.85;8.98;;;4.50;99.90;;;;;;4973051;28;20107;-62
2024/01/13 07:31:35;;;;;;;20.23;9.45;;;4.50;99.90;;;;;;4975370;28;20050;-62
2024/01/13 07:34:01;;;;;;;25.73;12.00;;;4.50;99.90;;;;;;4966710;28;20078;-62
2024/01/13 07:36:30;;;;;;;38.42;15.88;;;4.50;99.90;;;;;;4952341;28;20046;-62
2024/01/13 07:38:56;;;;;;;42.42;19.05;;;4.40;99.90;;;;;;4967194;28;20042;-62
2024/01/13 07:41:22;;;;;;;50.40;24.00;;;4.40;99.90;;;;;;4966421;28;20038;-62
2024/01/13 07:43:47;;;;;;;48.13;25.13;;;4.40;99.90;;;;;;4968447;28;20073;-62
2024/01/13 07:46:13;;;;;;;59.53;29.17;;;4.50;99.90;;;;;;4970398;28;20038;-62
2024/01/13 07:48:39;;;;;;;62.00;28.88;;;4.40;99.90;;;;;;4968248;28;20113;-62
2024/01/13 07:51:08;;;;;;;58.17;29.65;;;4.50;99.90;;;;;;4981040;28;20523;-62
2024/01/13 07:53:34;;;;;;;60.65;29.08;;;4.50;99.90;;;;;;4968796;28;20552;-62
2024/01/13 07:55:59;;;;;;;57.22;30.75;;;4.50;99.90;;;;;;4975939;28;20042;-62
2024/01/13 07:58:25;;;;;;;63.45;29.60;;;4.50;99.90;;;;;;4975232;28;20046;-62
2024/01/13 08:00:51;;;;;;;58.65;29.90;;;4.50;99.90;;;;;;4949482;28;20034;-62
2024/01/13 08:03:16;;;;;;;59.83;28.23;;;4.50;99.90;;;;;;4974859;28;20063;-62
2024/01/13 08:05:42;;;;;;;58.83;29.83;;;4.50;99.90;;;;;;4968004;28;20052;-62
2024/01/13 08:08:08;;;;;;;56.15;29.63;;;4.50;99.90;;;;;;4957234;28;20043;-62
2024/01/13 08:10:37;;;;;;;61.13;29.25;;;4.50;99.90;;;;;;4952491;28;20057;-62
2024/01/13 08:13:04;;;;;;;61.03;29.35;;;4.50;99.90;;;;;;5035570;28;20123;-62
2024/01/13 08:15:29;;;;;;;62.88;29.85;;;4.50;99.90;;;;;;4966655;28;20492;-63
2024/01/13 08:17:55;;;;;;;59.53;30.27;;;4.50;99.90;;;;;;4987241;28;20045;-62
2024/01/13 08:20:21;;;;;;;59.28;29.55;;;4.60;99.90;;;;;;4948751;28;20038;-62
2024/01/13 08:22:47;;;;;;;61.90;30.77;;;4.60;99.90;;;;;;4961999;28;20437;-62
2024/01/13 08:25:13;;;;;;;60.30;30.17;;;4.60;99.90;;;;;;4965648;28;20125;-62
2024/01/13 08:27:38;;;;;;;64.78;31.02;;;4.50;99.90;;;;;;4958222;28;20072;-62
2024/01/13 08:30:05;;;;;;;62.17;31.58;;;4.50;99.90;;;;;;4965162;28;20318;-62
2024/01/13 08:32:31;;;;;;;70.22;34.78;;;4.50;99.90;;;;;;4958094;28;20038;-62
2024/01/13 08:34:58;;;;;;;67.00;33.78;;;4.50;99.90;;;;;;4966282;28;20038;-62
2024/01/13 08:37:23;;;;;;;75.22;38.00;;;4.60;99.90;;;;;;4966563;28;20047;-62
2024/01/13 08:39:49;;;;;;;73.30;37.78;;;4.60;99.90;;;;;;4972616;28;20040;-62
2024/01/13 08:42:15;;;;;;;73.85;38.70;;;4.60;99.90;;;;;;4980694;28;20113;-62
2024/01/13 08:44:41;;;;;;;74.57;39.15;;;4.60;99.90;;;;;;4970065;28;20138;-62
2024/01/13 08:47:06;;;;;;;75.43;39.35;;;4.50;99.90;;;;;;4949863;28;20064;-62
2024/01/13 08:49:32;;;;;;;74.65;40.90;;;4.60;99.90;;;;;;5048457;28;20050;-62
2024/01/13 08:51:58;;;;;;;76.35;41.92;;;4.60;99.90;;;;;;4970900;28;20038;-62
2024/01/13 08:54:23;;;;;;;75.43;42.08;;;4.60;99.90;;;;;;4971413;28;20438;-62
2024/01/13 08:56:52;;;;;;;73.18;43.17;;;4.60;99.90;;;;;;4968726;28;20041;-62
2024/01/13 08:59:18;;;;;;;81.15;43.42;;;4.60;99.90;;;;;;4967139;28;20042;-62
2024/01/13 09:01:43;;;;;;;75.68;41.60;;;4.60;99.90;;;;;;4964774;28;20043;-62
2024/01/13 09:04:10;;;;;;;68.57;42.63;;;4.60;99.90;;;;;;4969078;28;20030;-62
2024/01/13 09:06:36;;;;;;;75.63;40.38;;;4.60;99.90;;;;;;4978454;28;20401;-62
2024/01/13 09:09:02;;;;;;;68.57;40.95;;;4.60;99.90;;;;;;4966467;28;20038;-62
2024/01/13 09:11:29;;;;;;;68.50;39.67;;;4.60;99.90;;;;;;4983546;28;20047;-62
2024/01/13 09:13:55;;;;;;;68.90;40.92;;;4.60;99.90;;;;;;4967373;28;20376;-62
2024/01/13 09:16:20;;;;;;;73.35;43.50;;;4.60;99.90;;;;;;4948066;28;20533;-62
2024/01/13 09:18:46;;;;;;;73.75;42.13;;;4.60;99.90;;;;;;4969549;28;20399;-62
2024/01/13 09:21:12;;;;;;;71.32;41.65;;;4.60;99.90;;;;;;4968870;28;20366;-62
2024/01/13 09:23:42;;;;;;;69.32;40.00;;;4.60;99.90;;;;;;4987910;28;20204;-63
2024/01/13 09:26:07;;;;;;;70.15;39.95;;;4.70;99.90;;;;;;4977435;28;20099;-62
2024/01/13 09:28:33;;;;;;;67.03;38.63;;;4.70;99.90;;;;;;4976849;28;20058;-62
2024/01/13 09:30:59;;;;;;;72.00;38.67;;;4.70;99.90;;;;;;4969851;28;20117;-62
2024/01/13 09:33:25;;;;;;;63.15;36.95;;;4.70;99.90;;;;;;5036477;28;20581;-62
2024/01/13 09:36:21;;;;;;;66.00;36.78;;;4.70;99.90;;;;;;4980400;28;20034;-62
2024/01/13 09:38:47;;;;;;;59.78;34.92;;;4.80;99.90;;;;;;4972056;28;20042;-62
2024/01/13 09:41:13;;;;;;;63.95;35.50;;;4.80;99.90;;;;;;4972949;28;20095;-62
2024/01/13 09:43:56;;;;;;;54.08;31.77;;;4.80;99.90;;;;;;4967466;28;20103;-62
2024/01/13 09:46:23;;;;;;;60.20;33.13;;;4.80;99.90;;;;;;4943619;28;20038;-62
2024/01/13 09:48:49;;;;;;;51.38;30.52;;;4.80;99.90;;;;;;4969786;28;20046;-63
2024/01/13 09:51:15;;;;;;;52.28;29.38;;;4.80;99.90;;;;;;4969903;28;20042;-62
2024/01/13 09:53:47;;;;;;;52.50;28.27;;;4.70;99.90;;;;;;4952153;28;20131;-62
2024/01/13 09:56:28;;;;;;;44.22;26.10;;;4.80;99.90;;;;;;4974442;28;20506;-62
2024/01/13 09:58:53;;;;;;;43.75;25.10;;;4.80;99.90;;;;;;4984458;28;20050;-62
2024/01/13 10:01:19;;;;;;;49.60;24.63;;;4.80;99.90;;;;;;4970962;28;20335;-62
2024/01/13 10:03:45;;;;;;;43.17;23.90;;;4.80;99.90;;;;;;4962720;28;20280;-62
2024/01/13 10:06:12;;;;;;;40.60;23.13;;;4.80;99.90;;;;;;4973121;28;20043;-62
2024/01/13 10:08:38;;;;;;;41.00;22.67;;;4.80;99.90;;;;;;4966934;28;20074;-62
2024/01/13 10:11:03;;;;;;;42.20;21.63;;;4.80;99.90;;;;;;4964697;28;20153;-62
2024/01/13 10:13:29;;;;;;;45.17;21.85;;;4.80;99.90;;;;;;4982068;28;20451;-62
2024/01/13 10:15:55;;;;;;;42.00;22.48;;;4.80;99.90;;;;;;4953446;28;20042;-62
2024/01/13 10:18:24;;;;;;;43.72;22.08;;;4.80;99.90;;;;;;5032169;28;20409;-62
2024/01/13 10:20:50;;;;;;;40.67;21.67;;;4.80;99.90;;;;;;4983345;28;20043;-62
2024/01/13 10:23:16;;;;;;;43.50;22.88;;;4.90;99.90;;;;;;4990738;28;20437;-62
2024/01/13 10:25:42;;;;;;;47.78;23.77;;;4.90;99.90;;;;;;4971561;28;20125;-63
2024/01/13 10:28:08;;;;;;;45.38;25.25;;;4.90;99.90;;;;;;4965310;28;20157;-64
2024/01/13 10:30:34;;;;;;;42.45;22.42;;;4.90;99.90;;;;;;4982047;28;20054;-63
2024/01/13 10:33:00;;;;;;;47.33;23.88;;;4.90;99.90;;;;;;4982092;28;20039;-63
2024/01/13 10:35:29;;;;;;;39.25;22.38;;;4.90;99.90;;;;;;4965214;28;20054;-63
2024/01/13 10:37:58;;;;;;;43.88;21.90;;;4.90;99.90;;;;;;4973479;28;20049;-63
2024/01/13 10:40:25;;;;;;;45.78;21.20;;;5.00;99.90;;;;;;4955154;28;20130;-63
2024/01/13 10:42:57;;;;;;;42.47;19.80;;;5.00;99.90;;;;;;4968668;28;20039;-63
2024/01/13 10:45:24;;;;;;;46.75;19.38;;;5.10;99.90;;;;;;4953021;28;20046;-63
2024/01/13 10:47:57;;;;;;;36.60;18.23;;;5.10;99.90;;;;;;4986836;28;20111;-63
2024/01/13 10:50:23;;;;;;;44.45;19.05;;;5.10;99.90;;;;;;4983974;28;20432;-64
2024/01/13 10:53:21;;;;;;;38.70;17.75;;;5.10;99.90;;;;;;4969974;28;20365;-63
2024/01/13 10:55:48;;;;;;;39.28;18.35;;;5.10;99.90;;;;;;4969526;28;20148;-63
2024/01/13 10:58:17;;;;;;;41.35;18.15;;;5.10;99.90;;;;;;4974950;28;20064;-63
2024/01/13 11:00:43;;;;;;;41.50;18.92;;;5.20;99.90;;;;;;4968546;28;20042;-64
2024/01/13 11:03:13;;;;;;;37.35;17.73;;;5.20;99.90;;;;;;4967875;28;20038;-63
2024/01/13 11:05:39;;;;;;;41.00;18.23;;;5.20;99.90;;;;;;4970608;28;20062;-63
2024/01/13 11:08:06;;;;;;;38.17;16.98;;;5.20;99.90;;;;;;4961094;28;20046;-63
2024/01/13 11:10:36;;;;;;;31.98;16.63;;;5.20;99.90;;;;;;4968054;28;20050;-64
2024/01/13 11:13:06;;;;;;;41.30;16.63;;;5.20;99.90;;;;;;4982879;28;20046;-63
2024/01/13 11:15:38;;;;;;;35.38;14.55;;;5.30;99.90;;;;;;4964732;28;20046;-63
2024/01/13 11:18:04;;;;;;;31.90;15.40;;;5.30;99.90;;;;;;4980105;28;20568;-64
2024/01/13 11:21:22;;;;;;;33.10;16.25;;;5.30;99.90;;;;;;4968301;28;20038;-63
2024/01/13 11:23:54;;;;;;;31.52;15.30;;;5.30;99.90;;;;;;4968411;28;20049;-64
2024/01/13 11:26:42;;;;;;;28.77;14.45;;;5.40;99.90;;;;;;4980401;28;20515;-64
2024/01/13 11:29:23;;;;;;;37.72;14.45;;;5.50;99.90;;;;;;4947144;28;20069;-64
2024/01/13 11:31:59;;;;;;;27.88;12.18;;;5.40;99.90;;;;;;4962661;28;20581;-64
2024/01/13 11:34:27;;;;;;;28.02;11.82;;;5.50;99.90;;;;;;4980895;28;20038;-64
2024/01/13 11:36:57;;;;;;;39.33;14.95;;;5.50;99.90;;;;;;4964739;28;20129;-64
2024/01/13 11:39:24;;;;;;;28.85;11.90;;;5.50;99.90;;;;;;5031255;28;20071;-64
2024/01/13 11:41:51;;;;;;;22.63;11.43;;;5.50;99.90;;;;;;4950573;28;20044;-64
2024/01/13 11:44:34;;;;;;;21.30;9.70;;;5.60;99.90;;;;;;4965733;28;20042;-63
2024/01/13 11:47:08;;;;;;;26.58;10.98;;;5.60;99.90;;;;;;4963690;28;20516;-62
2024/01/13 11:49:36;;;;;;;22.42;9.13;;;5.60;99.90;;;;;;4958595;28;20049;-62
2024/01/13 11:52:16;;;;;;;27.95;9.57;;;5.70;99.90;;;;;;4955772;28;20501;-62
2024/01/13 11:54:46;;;;;;;22.70;8.40;;;5.70;99.90;;;;;;4954382;28;20088;-62
2024/01/13 11:57:15;;;;;;;15.18;6.03;;;5.80;99.90;;;;;;4963854;28;20049;-62
2024/01/13 11:59:41;;;;;;;16.58;6.35;;;5.80;99.90;;;;;;5025662;28;20049;-62
2024/01/13 12:02:08;;;;;;;14.13;5.28;;;5.80;99.90;;;;;;4987829;28;20037;-63
2024/01/13 12:04:35;;;;;;;16.38;5.35;;;5.80;99.90;;;;;;4992616;28;20042;-62
2024/01/13 12:07:01;;;;;;;13.82;4.38;;;5.80;99.90;;;;;;4983727;28;20081;-62
2024/01/13 12:09:28;;;;;;;18.08;4.28;;;5.80;99.90;;;;;;4966789;28;20069;-62
2024/01/13 12:11:58;;;;;;;12.27;4.00;;;5.90;99.90;;;;;;4961083;28;20264;-62
2024/01/13 12:14:26;;;;;;;11.77;3.60;;;5.90;99.90;;;;;;4970367;28;20058;-62
2024/01/13 12:16:53;;;;;;;8.23;2.67;;;5.90;99.90;;;;;;4956464;28;20042;-63
2024/01/13 12:19:20;;;;;;;7.72;2.83;;;5.90;99.90;;;;;;4947048;28;20043;-62
2024/01/13 12:21:46;;;;;;;9.77;2.83;;;5.90;99.90;;;;;;4962102;28;20504;-62
2024/01/13 12:24:13;;;;;;;10.18;3.58;;;5.90;99.90;;;;;;4959361;28;20465;-62
2024/01/13 12:26:39;;;;;;;10.85;3.38;;;5.90;99.90;;;;;;4960016;28;20528;-62
2024/01/13 12:29:05;;;;;;;12.70;3.65;;;5.90;99.90;;;;;;4958940;28;20099;-62
2024/01/13 12:31:31;;;;;;;13.93;3.47;;;6.00;99.90;;;;;;4968627;28;20050;-62
2024/01/13 12:34:11;;;;;;;14.93;3.60;;;6.00;99.90;;;;;;4934404;28;20046;-62
2024/01/13 12:36:37;;;;;;;18.63;4.55;;;6.10;99.90;;;;;;4945489;28;20081;-62
2024/01/13 12:39:03;;;;;;;9.10;3.20;;;6.10;99.90;;;;;;4959980;28;20034;-62
2024/01/13 12:41:30;;;;;;;15.77;4.03;;;6.10;99.90;;;;;;4965299;28;20055;-62
2024/01/13 12:43:55;;;;;;;11.00;4.38;;;6.20;99.90;;;;;;4958903;28;20633;-63